Time;durP1;ratioP1;P1;durP2;ratioP2;P2;SDS_P1;SDS_P2;PMS_P1;PMS_P2;Temp;Humidity;BMP_temperature;BMP_pressure;BME280_temperature;BME280_humidity;BME280_pressure;Samples;Min_cycle;Max_cycle;Signal;HPM_P1;HPM_P2
2023/11/07 00:00:14;;;;;;;14.82;4.10;;;;;;;6.83;100.00;99504.41;5064102;28;20083;-43
2023/11/07 00:02:42;;;;;;;5.88;1.75;;;;;;;6.82;100.00;99503.59;5066522;28;20056;-43
2023/11/07 00:05:09;;;;;;;6.45;1.70;;;;;;;6.83;100.00;99505.16;5060844;28;20041;-44
2023/11/07 00:07:37;;;;;;;3.60;1.42;;;;;;;6.83;100.00;99504.41;5067304;28;20048;-45
2023/11/07 00:10:04;;;;;;;5.80;1.35;;;;;;;6.80;100.00;99500.41;5064985;28;20087;-45
2023/11/07 00:12:31;;;;;;;7.05;2.13;;;;;;;6.79;100.00;99511.72;5062482;28;20379;-44
2023/11/07 00:14:57;;;;;;;12.65;2.00;;;;;;;6.78;100.00;99518.41;5069690;28;20048;-44
2023/11/07 00:17:24;;;;;;;4.78;1.33;;;;;;;6.75;100.00;99512.44;5070704;28;20051;-44
2023/11/07 00:19:51;;;;;;;12.70;1.98;;;;;;;6.72;100.00;99504.88;5069605;28;20045;-44
2023/11/07 00:22:18;;;;;;;11.52;4.20;;;;;;;6.71;100.00;99518.97;5057431;28;20091;-43
2023/11/07 00:24:45;;;;;;;4.45;1.63;;;;;;;6.71;100.00;99525.28;5063362;28;20052;-45
2023/11/07 00:27:12;;;;;;;8.88;1.80;;;;;;;6.69;100.00;99522.09;5050537;28;20033;-45
2023/11/07 00:29:38;;;;;;;5.07;1.92;;;;;;;6.68;100.00;99525.97;5069580;28;20070;-44
2023/11/07 00:32:06;;;;;;;9.13;2.40;;;;;;;6.67;100.00;99538.13;5056861;28;20045;-45
2023/11/07 00:34:32;;;;;;;7.85;2.05;;;;;;;6.66;100.00;99531.03;5059008;28;20099;-45
2023/11/07 00:36:59;;;;;;;7.72;1.83;;;;;;;6.67;100.00;99529.09;5062838;28;20063;-44
2023/11/07 00:39:26;;;;;;;12.07;2.00;;;;;;;6.66;100.00;99530.22;5056963;28;20075;-44
2023/11/07 00:41:53;;;;;;;3.45;1.50;;;;;;;6.65;100.00;99531.38;5057632;28;20147;-43
2023/11/07 00:44:19;;;;;;;8.98;1.95;;;;;;;6.63;100.00;99528.19;5057228;28;20089;-45
2023/11/07 00:46:47;;;;;;;6.22;1.85;;;;;;;6.62;100.00;99532.88;5070136;28;20136;-45
2023/11/07 00:49:14;;;;;;;14.68;3.03;;;;;;;6.61;100.00;99541.47;5070411;28;20074;-49
2023/11/07 00:51:41;;;;;;;10.50;2.00;;;;;;;6.58;100.00;99542.97;5068492;28;20812;-48
2023/11/07 00:54:10;;;;;;;11.10;1.63;;;;;;;6.57;100.00;99541.38;5057445;28;20123;-44
2023/11/07 00:56:37;;;;;;;8.45;1.75;;;;;;;6.58;100.00;99545.72;5066491;28;20090;-43
2023/11/07 00:59:04;;;;;;;11.20;1.63;;;;;;;6.57;100.00;99546.88;5061985;28;20849;-43
2023/11/07 01:01:31;;;;;;;5.78;1.90;;;;;;;6.56;100.00;99539.78;5065510;28;20374;-45
2023/11/07 01:03:58;;;;;;;6.30;1.45;;;;;;;6.56;100.00;99548.03;5070704;28;20048;-43
2023/11/07 01:06:25;;;;;;;10.30;2.13;;;;;;;6.57;100.00;99554.31;5051816;28;20098;-44
2023/11/07 01:08:55;;;;;;;6.43;1.42;;;;;;;6.57;100.00;99557.88;5051785;28;20095;-44
2023/11/07 01:11:22;;;;;;;7.22;1.80;;;;;;;6.59;100.00;99550.06;5053477;28;20041;-45
2023/11/07 01:13:48;;;;;;;7.95;2.33;;;;;;;6.61;100.00;99556.03;5069202;28;20047;-43
2023/11/07 01:16:15;;;;;;;10.63;2.05;;;;;;;6.62;100.00;99546.63;5066125;28;20045;-44
2023/11/07 01:18:42;;;;;;;9.18;2.22;;;;;;;6.61;100.00;99561.53;5059478;28;20110;-45
2023/11/07 01:21:09;;;;;;;5.15;1.67;;;;;;;6.62;100.00;99570.56;5055877;28;20033;-43
2023/11/07 01:23:37;;;;;;;3.72;1.55;;;;;;;6.62;100.00;99571.38;5069387;28;20045;-45
2023/11/07 01:26:05;;;;;;;6.47;1.73;;;;;;;6.63;100.00;99575.72;5068535;28;20114;-43
2023/11/07 01:28:31;;;;;;;11.23;1.77;;;;;;;6.66;100.00;99583.28;5063277;28;20045;-44
2023/11/07 01:30:58;;;;;;;11.32;1.90;;;;;;;6.69;100.00;99581.78;5066784;28;20393;-43
2023/11/07 01:33:25;;;;;;;11.90;1.90;;;;;;;6.71;100.00;99579.50;5062535;28;20033;-43
2023/11/07 01:35:52;;;;;;;17.20;2.10;;;;;;;6.73;100.00;99588.19;5056085;28;20063;-43
2023/11/07 01:38:18;;;;;;;11.80;2.38;;;;;;;6.77;100.00;99577.31;5060723;28;20131;-44
2023/11/07 01:40:45;;;;;;;8.75;2.55;;;;;;;6.76;100.00;99582.00;5056021;28;20037;-51
2023/11/07 01:43:13;;;;;;;6.43;1.60;;;;;;;6.77;100.00;99585.56;5060000;28;20055;-44
2023/11/07 01:45:41;;;;;;;9.35;1.67;;;;;;;6.73;100.00;99600.00;5066606;28;20051;-44
2023/11/07 01:48:11;;;;;;;4.18;1.13;;;;;;;6.73;100.00;99593.69;5059447;28;20041;-44
2023/11/07 01:50:39;;;;;;;10.77;1.98;;;;;;;6.73;100.00;99589.00;5055421;28;20067;-45
2023/11/07 01:53:06;;;;;;;8.00;1.58;;;;;;;6.72;100.00;99603.88;5065810;28;20040;-43
2023/11/07 01:55:35;;;;;;;6.97;1.83;;;;;;;6.72;100.00;99598.38;5068374;28;20055;-43
2023/11/07 01:58:03;;;;;;;6.80;1.75;;;;;;;6.74;100.00;99598.06;5067462;28;20039;-43
2023/11/07 02:00:30;;;;;;;7.05;1.50;;;;;;;6.73;100.00;99605.50;5068266;28;20048;-43
2023/11/07 02:02:58;;;;;;;9.45;1.92;;;;;;;6.70;100.00;99597.94;5067734;28;20063;-43
2023/11/07 02:05:25;;;;;;;11.48;2.13;;;;;;;6.68;100.00;99613.19;5066001;28;20053;-43
2023/11/07 02:07:52;;;;;;;14.27;3.22;;;;;;;6.67;100.00;99620.63;5067900;28;20091;-47
2023/11/07 02:10:20;;;;;;;12.23;1.80;;;;;;;6.65;100.00;99613.88;5068117;28;20115;-43
2023/11/07 02:12:46;;;;;;;5.63;1.60;;;;;;;6.65;100.00;99609.19;5067176;28;20044;-44
2023/11/07 02:15:26;;;;;;;16.33;2.08;;;;;;;6.64;100.00;99626.84;5066748;28;20080;-43
2023/11/07 02:17:54;;;;;;;7.28;1.70;;;;;;;6.63;100.00;99622.47;5066779;28;20055;-43
2023/11/07 02:20:22;;;;;;;11.90;2.65;;;;;;;6.61;100.00;99630.28;5067728;28;20125;-47
2023/11/07 02:22:53;;;;;;;10.10;3.00;;;;;;;6.59;100.00;99627.06;5066670;28;20041;-44
2023/11/07 02:25:20;;;;;;;9.65;1.63;;;;;;;6.59;100.00;99638.06;5049906;28;20506;-43
2023/11/07 02:27:47;;;;;;;12.00;1.58;;;;;;;6.62;100.00;99642.88;5067753;28;20044;-43
2023/11/07 02:30:14;;;;;;;7.03;1.45;;;;;;;6.63;100.00;99636.22;5067722;28;20045;-43
2023/11/07 02:32:41;;;;;;;8.07;1.60;;;;;;;6.66;100.00;99649.28;5067561;28;20052;-43
2023/11/07 02:35:12;;;;;;;7.93;1.67;;;;;;;6.67;100.00;99653.63;5066378;28;20143;-47
2023/11/07 02:37:40;;;;;;;7.50;2.28;;;;;;;6.68;100.00;99647.00;5067297;28;20037;-44
2023/11/07 02:40:10;;;;;;;4.30;1.23;;;;;;;6.72;100.00;99652.63;5067673;28;20040;-44
2023/11/07 02:42:37;;;;;;;17.60;3.85;;;;;;;6.74;100.00;99658.56;5029598;28;20041;-43
2023/11/07 02:45:05;;;;;;;8.60;1.73;;;;;;;6.77;100.00;99654.31;5060423;28;20036;-46
2023/11/07 02:47:33;;;;;;;5.93;1.40;;;;;;;6.79;100.00;99650.06;5067608;28;20024;-44
2023/11/07 02:50:07;;;;;;;11.00;2.22;;;;;;;6.82;100.00;99645.81;5066945;28;20044;-44
2023/11/07 02:52:36;;;;;;;7.15;1.75;;;;;;;6.82;100.00;99641.13;5067770;28;20032;-43
2023/11/07 02:55:03;;;;;;;9.75;1.83;;;;;;;6.81;100.00;99650.53;5067044;28;20078;-50
2023/11/07 02:57:30;;;;;;;4.63;1.50;;;;;;;6.80;100.00;99648.13;5058996;28;20048;-43
2023/11/07 02:59:57;;;;;;;6.50;2.15;;;;;;;6.78;100.00;99653.19;5031650;28;20071;-44
2023/11/07 03:02:24;;;;;;;5.05;1.65;;;;;;;6.75;100.00;99647.22;5143111;22;20056;-44
2023/11/07 03:04:54;;;;;;;8.52;2.45;;;;;;;6.73;100.00;99652.25;5067034;28;20041;-43
2023/11/07 03:07:21;;;;;;;10.45;1.80;;;;;;;6.73;100.00;99654.19;5066738;28;20036;-44
2023/11/07 03:09:48;;;;;;;8.05;1.95;;;;;;;6.73;100.00;99655.00;5066858;28;20040;-44
2023/11/07 03:12:16;;;;;;;8.77;1.95;;;;;;;6.76;100.00;99659.00;5067623;28;20771;-49
2023/11/07 03:14:43;;;;;;;5.60;1.67;;;;;;;6.77;100.00;99662.56;5066907;28;20046;-45
2023/11/07 03:17:10;;;;;;;9.80;2.05;;;;;;;6.79;100.00;99663.81;5067429;28;20620;-44
2023/11/07 03:19:37;;;;;;;9.52;1.50;;;;;;;6.82;100.00;99665.88;5064282;28;21894;-46
2023/11/07 03:22:04;;;;;;;7.82;2.10;;;;;;;6.86;100.00;99663.25;5066191;28;20155;-44
2023/11/07 03:24:31;;;;;;;6.30;1.33;;;;;;;6.88;100.00;99663.72;5065800;28;20071;-44
2023/11/07 03:26:58;;;;;;;4.07;1.27;;;;;;;6.90;100.00;99669.66;5068641;28;20055;-45
2023/11/07 03:29:25;;;;;;;7.82;1.48;;;;;;;6.92;100.00;99661.84;5069441;28;20029;-45
2023/11/07 03:31:53;;;;;;;8.70;1.70;;;;;;;6.93;100.00;99660.72;5070360;28;20075;-43
2023/11/07 03:34:21;;;;;;;8.45;1.20;;;;;;;6.95;100.00;99661.16;5070420;28;20406;-43
2023/11/07 03:36:48;;;;;;;5.05;1.15;;;;;;;6.95;100.00;99658.41;5071155;28;20049;-46
2023/11/07 03:39:15;;;;;;;3.78;1.67;;;;;;;6.95;100.00;99661.97;5070405;28;20044;-48
2023/11/07 03:41:43;;;;;;;12.57;1.60;;;;;;;6.96;100.00;99663.59;5070942;28;20132;-46
2023/11/07 03:44:09;;;;;;;9.82;1.77;;;;;;;6.95;100.00;99661.97;5070439;28;20056;-49
2023/11/07 03:46:36;;;;;;;5.43;1.20;;;;;;;6.96;100.00;99668.28;5069344;28;20051;-45
2023/11/07 03:49:03;;;;;;;7.70;2.05;;;;;;;6.96;100.00;99662.78;5066778;28;20044;-48
2023/11/07 03:51:30;;;;;;;6.10;1.20;;;;;;;6.96;100.00;99660.84;5063599;28;20078;-46
2023/11/07 03:53:57;;;;;;;10.55;1.58;;;;;;;6.96;100.00;99668.28;5069050;28;20040;-48
2023/11/07 03:56:23;;;;;;;5.70;1.65;;;;;;;6.95;100.00;99666.66;5069615;28;20520;-46
2023/11/07 03:58:50;;;;;;;8.88;1.20;;;;;;;6.90;100.00;99659.47;5064257;28;20041;-48
2023/11/07 04:01:17;;;;;;;12.52;1.38;;;;;;;6.89;100.00;99668.03;5068740;28;20051;-44
2023/11/07 04:03:44;;;;;;;4.00;1.30;;;;;;;6.87;100.00;99664.84;5070163;28;20628;-46
2023/11/07 04:06:11;;;;;;;5.75;1.60;;;;;;;6.86;100.00;99679.78;5069247;28;20159;-44
2023/11/07 04:08:38;;;;;;;5.25;1.30;;;;;;;6.87;100.00;99681.34;5070094;28;20505;-42
2023/11/07 04:11:05;;;;;;;5.07;1.75;;;;;;;6.89;100.00;99690.06;5069244;28;20037;-44
2023/11/07 04:13:34;;;;;;;4.88;1.08;;;;;;;6.91;100.00;99693.28;5069396;28;20490;-43
2023/11/07 04:16:02;;;;;;;7.25;1.83;;;;;;;6.92;100.00;99706.69;5068141;28;20090;-48
2023/11/07 04:18:29;;;;;;;2.70;1.30;;;;;;;6.96;100.00;99695.78;5062055;28;20033;-44
2023/11/07 04:20:57;;;;;;;4.60;1.20;;;;;;;6.98;100.00;99704.50;5068667;28;20070;-47
2023/11/07 04:23:24;;;;;;;6.45;1.00;;;;;;;7.02;100.00;99708.16;5069713;28;20045;-45
2023/11/07 04:25:50;;;;;;;8.23;1.50;;;;;;;7.04;100.00;99708.63;5069343;28;20032;-43
2023/11/07 04:28:17;;;;;;;10.38;1.75;;;;;;;7.06;100.00;99714.56;5067632;28;20049;-44
2023/11/07 04:30:44;;;;;;;8.20;2.42;;;;;;;7.07;100.00;99716.97;5069805;28;20070;-43
2023/11/07 04:33:11;;;;;;;7.82;1.45;;;;;;;7.10;100.00;99712.72;5069355;28;20047;-43
2023/11/07 04:35:41;;;;;;;6.60;1.20;;;;;;;7.13;100.00;99712.84;5065214;28;20072;-45
2023/11/07 04:38:08;;;;;;;9.35;1.55;;;;;;;7.13;100.00;99707.34;5068860;28;20049;-43
2023/11/07 04:40:35;;;;;;;5.63;1.27;;;;;;;7.13;100.00;99717.53;5069771;28;20074;-43
2023/11/07 04:43:02;;;;;;;6.35;1.40;;;;;;;7.11;100.00;99719.84;5067629;28;20098;-44
2023/11/07 04:45:29;;;;;;;4.07;1.00;;;;;;;7.07;100.00;99725.22;5068945;28;20037;-44
2023/11/07 04:47:56;;;;;;;10.05;2.40;;;;;;;7.07;100.00;99718.94;5069198;28;20044;-46
2023/11/07 04:50:24;;;;;;;3.03;1.08;;;;;;;7.06;100.00;99728.34;5062933;28;20097;-45
2023/11/07 04:52:51;;;;;;;6.78;2.17;;;;;;;7.06;100.00;99733.84;5069774;28;20029;-44
2023/11/07 04:55:18;;;;;;;8.45;1.73;;;;;;;7.06;100.00;99734.66;5069235;28;20525;-45
2023/11/07 04:57:45;;;;;;;4.50;1.20;;;;;;;7.05;100.00;99737.72;5069597;28;20041;-49
2023/11/07 05:00:12;;;;;;;6.25;1.35;;;;;;;7.04;100.00;99736.13;5069660;28;20061;-44
2023/11/07 05:02:40;;;;;;;5.57;1.48;;;;;;;7.04;100.00;99744.41;5068570;28;20094;-44
2023/11/07 05:05:08;;;;;;;6.35;1.27;;;;;;;7.02;100.00;99732.91;5069583;28;20040;-44
2023/11/07 05:07:37;;;;;;;6.20;1.50;;;;;;;6.99;100.00;99741.88;5069232;28;20090;-47
2023/11/07 05:10:04;;;;;;;4.03;1.10;;;;;;;6.98;100.00;99743.03;5068038;28;20035;-43
2023/11/07 05:12:31;;;;;;;7.32;1.48;;;;;;;6.97;100.00;99746.91;5062283;28;20478;-44
2023/11/07 05:14:58;;;;;;;8.30;1.50;;;;;;;6.98;100.00;99754.03;5069165;28;20090;-44
2023/11/07 05:17:25;;;;;;;8.25;1.35;;;;;;;6.95;100.00;99744.50;5068776;28;20037;-43
2023/11/07 05:19:51;;;;;;;5.45;1.02;;;;;;;6.94;100.00;99753.91;5068306;28;20469;-46
2023/11/07 05:22:18;;;;;;;5.53;1.67;;;;;;;6.93;100.00;99757.00;5066516;28;20036;-45
2023/11/07 05:24:45;;;;;;;7.43;0.88;;;;;;;6.92;100.00;99758.16;5068484;28;20131;-43
2023/11/07 05:27:13;;;;;;;6.03;1.45;;;;;;;6.94;100.00;99758.59;5068528;28;20044;-47
2023/11/07 05:29:40;;;;;;;5.50;1.60;;;;;;;6.94;100.00;99762.16;5062155;28;20120;-44
2023/11/07 05:32:07;;;;;;;10.80;1.58;;;;;;;6.95;100.00;99762.97;5067687;28;20037;-45
2023/11/07 05:34:39;;;;;;;4.43;1.83;;;;;;;6.96;100.00;99767.34;5068567;28;20127;-47
2023/11/07 05:37:06;;;;;;;3.83;1.35;;;;;;;6.94;100.00;99762.16;5065556;28;20630;-43
2023/11/07 05:39:34;;;;;;;6.85;1.15;;;;;;;6.92;100.00;99767.22;5061926;28;20047;-46
2023/11/07 05:42:03;;;;;;;9.57;2.13;;;;;;;6.91;100.00;99765.59;5066032;28;20029;-43
2023/11/07 05:44:30;;;;;;;7.03;1.65;;;;;;;6.95;100.00;99768.47;5068323;28;20041;-47
2023/11/07 05:46:57;;;;;;;9.82;2.28;;;;;;;6.97;100.00;99769.72;5067844;28;20048;-45
2023/11/07 05:49:24;;;;;;;6.28;1.23;;;;;;;6.98;100.00;99776.03;5067258;28;20044;-43
2023/11/07 05:51:52;;;;;;;4.93;1.30;;;;;;;6.97;100.00;99779.94;5067300;28;20086;-43
2023/11/07 05:54:20;;;;;;;11.75;2.33;;;;;;;6.96;100.00;99773.66;5060256;28;20753;-43
2023/11/07 05:56:46;;;;;;;4.90;1.80;;;;;;;6.97;100.00;99789.00;5068012;28;20098;-44
2023/11/07 05:59:13;;;;;;;10.90;2.58;;;;;;;6.99;100.00;99794.16;5067650;28;20045;-48
2023/11/07 06:01:40;;;;;;;6.40;1.55;;;;;;;6.97;100.00;99801.94;5067509;28;20069;-43
2023/11/07 06:04:08;;;;;;;6.75;1.63;;;;;;;6.98;100.00;99798.06;5066622;28;20502;-43
2023/11/07 06:06:35;;;;;;;9.35;1.77;;;;;;;6.97;100.00;99800.00;5067644;28;20046;-47
2023/11/07 06:09:03;;;;;;;5.85;1.35;;;;;;;6.99;100.00;99805.19;5065916;28;20036;-48
2023/11/07 06:11:30;;;;;;;7.85;1.65;;;;;;;6.99;100.00;99810.69;5066828;28;20036;-43
2023/11/07 06:13:56;;;;;;;5.75;1.52;;;;;;;6.99;100.00;99814.22;5066239;28;20048;-44
2023/11/07 06:16:23;;;;;;;4.40;1.23;;;;;;;6.98;100.00;99806.31;5066624;28;20470;-45
2023/11/07 06:18:50;;;;;;;5.20;1.35;;;;;;;6.95;100.00;99807.00;5067819;28;20044;-43
2023/11/07 06:21:17;;;;;;;2.58;1.05;;;;;;;6.93;100.00;99812.84;5066636;28;20642;-45
2023/11/07 06:23:44;;;;;;;6.25;1.38;;;;;;;6.94;100.00;99810.88;5078753;28;20033;-43
2023/11/07 06:26:10;;;;;;;10.68;1.60;;;;;;;6.95;100.00;99827.06;5067620;28;20036;-48
2023/11/07 06:28:37;;;;;;;6.78;2.08;;;;;;;6.96;100.00;99822.38;5065645;28;20127;-46
2023/11/07 06:31:04;;;;;;;18.17;1.67;;;;;;;6.95;100.00;99820.75;5066374;28;20098;-46
2023/11/07 06:33:31;;;;;;;4.80;1.35;;;;;;;6.96;100.00;99827.88;5066629;28;20035;-48
2023/11/07 06:35:58;;;;;;;12.23;1.75;;;;;;;6.94;100.00;99830.13;5066978;28;20048;-46
2023/11/07 06:38:25;;;;;;;9.10;1.80;;;;;;;6.92;100.00;99836.00;5067524;28;20032;-47
2023/11/07 06:40:52;;;;;;;5.32;2.00;;;;;;;6.90;100.00;99821.78;5066549;28;20036;-46
2023/11/07 06:43:19;;;;;;;11.60;3.63;;;;;;;6.89;100.00;99846.88;5067185;28;20036;-44
2023/11/07 06:45:46;;;;;;;6.50;1.77;;;;;;;6.87;100.00;99841.72;5065333;28;20048;-43
2023/11/07 06:48:13;;;;;;;5.80;1.40;;;;;;;6.87;100.00;99844.47;5066921;28;20060;-48
2023/11/07 06:50:40;;;;;;;4.40;1.80;;;;;;;6.86;100.00;99853.09;5066696;28;20037;-44
2023/11/07 06:53:07;;;;;;;9.15;1.55;;;;;;;6.87;100.00;99851.94;5066881;28;20056;-47
2023/11/07 06:55:34;;;;;;;7.68;2.47;;;;;;;6.88;100.00;99850.78;5065907;28;20044;-45
2023/11/07 06:58:01;;;;;;;8.55;1.85;;;;;;;6.87;100.00;99852.72;5066636;28;20044;-48
2023/11/07 07:00:29;;;;;;;15.77;2.80;;;;;;;6.87;100.00;99854.69;5066860;28;20040;-43
2023/11/07 07:02:56;;;;;;;11.18;2.88;;;;;;;6.87;100.00;99863.75;5066270;28;20804;-47
2023/11/07 07:05:24;;;;;;;11.45;3.25;;;;;;;6.86;100.00;99864.09;5062064;28;20060;-48
2023/11/07 07:07:52;;;;;;;7.70;2.42;;;;;;;6.83;100.00;99875.78;5063870;28;20055;-45
2023/11/07 07:10:18;;;;;;;8.40;3.03;;;;;;;6.82;100.00;99861.22;5066846;28;20366;-44
2023/11/07 07:12:45;;;;;;;8.43;2.50;;;;;;;6.81;100.00;99872.53;5067086;28;20078;-48
2023/11/07 07:15:12;;;;;;;7.53;3.22;;;;;;;6.82;100.00;99876.91;5064823;28;20066;-46
2023/11/07 07:17:39;;;;;;;5.93;2.15;;;;;;;6.83;100.00;99884.03;5065804;28;20060;-45
2023/11/07 07:20:11;;;;;;;6.72;2.10;;;;;;;6.85;100.00;99878.97;5067025;28;20044;-45
2023/11/07 07:22:41;;;;;;;4.82;2.15;;;;;;;6.84;100.00;99877.38;5059574;28;20459;-48
2023/11/07 07:25:15;;;;;;;6.18;1.95;;;;;;;6.86;100.00;99883.34;5066356;28;20040;-46
2023/11/07 07:27:47;;;;;;;8.55;2.30;;;;;;;6.87;100.00;99885.75;5065375;28;20421;-49
2023/11/07 07:30:20;;;;;;;7.90;2.80;;;;;;;6.90;100.00;99895.28;5062237;28;20445;-46
2023/11/07 07:32:50;;;;;;;9.02;2.03;;;;;;;6.90;100.00;99898.81;5065709;28;20072;-43
2023/11/07 07:35:20;;;;;;;9.10;2.00;;;;;;;6.90;100.00;99901.59;5062785;28;20410;-44
2023/11/07 07:37:51;;;;;;;6.75;2.28;;;;;;;6.91;100.00;99902.38;5061729;28;20044;-48
2023/11/07 07:40:25;;;;;;;11.07;2.05;;;;;;;6.89;100.00;99897.22;5066389;28;20040;-46
2023/11/07 07:42:54;;;;;;;4.32;1.77;;;;;;;6.87;100.00;99891.25;5066956;28;20144;-47
2023/11/07 07:45:23;;;;;;;8.52;1.75;;;;;;;6.86;100.00;99906.13;5067082;28;20036;-49
2023/11/07 07:47:50;;;;;;;6.10;2.35;;;;;;;6.83;100.00;99909.56;5066430;28;20037;-46
2023/11/07 07:50:18;;;;;;;9.45;2.50;;;;;;;6.82;100.00;99912.69;5066851;28;20036;-44
2023/11/07 07:52:48;;;;;;;7.22;1.77;;;;;;;6.80;100.00;99906.72;5067079;28;20437;-50
2023/11/07 07:55:19;;;;;;;8.63;2.00;;;;;;;6.80;100.00;99912.22;5066922;28;20032;-48
2023/11/07 07:58:00;;;;;;;10.32;1.63;;;;;;;6.80;100.00;99917.72;5065862;28;20033;-44
2023/11/07 08:00:30;;;;;;;5.25;1.65;;;;;;;6.78;100.00;99920.78;5065369;28;20032;-45
2023/11/07 08:02:58;;;;;;;5.97;1.67;;;;;;;6.76;100.00;99923.09;5065699;28;20084;-43
2023/11/07 08:05:27;;;;;;;8.65;1.73;;;;;;;6.74;100.00;99931.69;5066578;28;20044;-44
2023/11/07 08:07:54;;;;;;;7.00;1.30;;;;;;;6.73;100.00;99932.81;5066056;28;20048;-43
2023/11/07 08:10:22;;;;;;;8.45;1.65;;;;;;;6.71;100.00;99924.13;5064482;28;20139;-42
2023/11/07 08:12:50;;;;;;;11.32;1.52;;;;;;;6.73;100.00;99935.56;5067088;28;20036;-43
2023/11/07 08:15:17;;;;;;;7.40;1.70;;;;;;;6.73;100.00;99930.06;5070268;28;20094;-42
2023/11/07 08:17:45;;;;;;;8.75;2.88;;;;;;;6.74;100.00;99936.38;5069658;28;20056;-46
2023/11/07 08:20:14;;;;;;;12.88;1.88;;;;;;;6.75;100.00;99944.28;5069275;28;20031;-43
2023/11/07 08:22:42;;;;;;;6.63;1.77;;;;;;;6.77;100.00;99940.41;5064901;28;20040;-43
2023/11/07 08:25:10;;;;;;;6.55;1.58;;;;;;;6.79;100.00;99949.91;5067051;28;20040;-42
2023/11/07 08:27:38;;;;;;;10.88;1.83;;;;;;;6.81;100.00;99944.06;5067692;28;20086;-43
2023/11/07 08:30:09;;;;;;;6.18;1.55;;;;;;;6.85;100.00;99950.50;5068202;28;20057;-45
2023/11/07 08:32:37;;;;;;;9.48;1.30;;;;;;;6.87;100.00;99945.47;5066351;28;20510;-46
2023/11/07 08:35:06;;;;;;;5.50;1.30;;;;;;;6.88;100.00;99949.84;5056643;28;20452;-44
2023/11/07 08:37:34;;;;;;;7.88;2.00;;;;;;;6.92;100.00;99959.00;5068792;28;20045;-45
2023/11/07 08:40:05;;;;;;;10.95;1.40;;;;;;;6.92;100.00;99957.06;5066927;28;20041;-45
2023/11/07 08:42:32;;;;;;;7.30;1.48;;;;;;;6.94;100.00;99973.22;5060337;28;20473;-42
2023/11/07 08:44:59;;;;;;;7.78;1.67;;;;;;;6.96;100.00;99976.47;5067976;28;20037;-44
2023/11/07 08:47:28;;;;;;;3.92;1.15;;;;;;;6.97;100.00;99959.59;5066645;28;20040;-44
2023/11/07 08:49:57;;;;;;;7.03;2.08;;;;;;;7.01;100.00;99979.00;5066727;28;20856;-42
2023/11/07 08:52:24;;;;;;;5.95;1.40;;;;;;;7.03;100.00;99966.50;5067781;28;20041;-45
2023/11/07 08:54:52;;;;;;;7.05;1.55;;;;;;;7.07;100.00;99989.44;5053267;28;20075;-50
2023/11/07 08:57:19;;;;;;;8.02;1.25;;;;;;;7.10;100.00;99977.75;5067163;28;20051;-42
2023/11/07 08:59:45;;;;;;;8.68;1.48;;;;;;;7.13;100.00;99984.53;5066188;28;20383;-44
2023/11/07 09:02:13;;;;;;;4.93;1.35;;;;;;;7.15;100.00;99973.97;5067903;28;20064;-45
2023/11/07 09:04:39;;;;;;;6.90;1.55;;;;;;;7.18;100.00;99987.06;5066693;28;20465;-44
2023/11/07 09:07:06;;;;;;;8.00;1.70;;;;;;;7.20;100.00;99987.53;5067597;28;20110;-46
2023/11/07 09:09:34;;;;;;;10.63;1.88;;;;;;;7.20;100.00;99988.31;5067039;28;20043;-47
2023/11/07 09:12:01;;;;;;;8.30;2.33;;;;;;;7.23;100.00;99990.38;5066907;28;20036;-48
2023/11/07 09:14:28;;;;;;;7.20;1.75;;;;;;;7.26;100.00;99994.41;5065038;28;20033;-42
2023/11/07 09:16:54;;;;;;;11.88;1.65;;;;;;;7.28;100.00;100000.41;5067015;28;20127;-44
2023/11/07 09:19:21;;;;;;;9.95;2.83;;;;;;;7.28;100.00;100001.19;5067330;28;20055;-44
2023/11/07 09:21:48;;;;;;;7.80;2.05;;;;;;;7.31;100.00;100007.94;5049202;28;20060;-42
2023/11/07 09:24:15;;;;;;;11.50;2.28;;;;;;;7.32;100.00;100017.84;5066858;28;20076;-43
2023/11/07 09:26:42;;;;;;;11.13;2.67;;;;;;;7.34;100.00;100010.03;5065704;28;20592;-45
2023/11/07 09:29:08;;;;;;;10.50;1.52;;;;;;;7.36;100.00;100016.00;5061248;28;20430;-42
2023/11/07 09:31:35;;;;;;;9.52;1.88;;;;;;;7.40;100.00;100030.69;5067378;28;20048;-47
2023/11/07 09:34:02;;;;;;;10.68;1.63;;;;;;;7.40;100.00;100019.69;5067436;28;20045;-43
2023/11/07 09:36:30;;;;;;;8.95;2.47;;;;;;;7.42;100.00;100024.84;5066650;28;20560;-45
2023/11/07 09:38:57;;;;;;;9.70;1.65;;;;;;;7.43;100.00;100018.19;5066667;28;20583;-43
2023/11/07 09:41:25;;;;;;;6.43;1.83;;;;;;;7.45;100.00;100027.72;5081407;28;20111;-48
2023/11/07 09:43:51;;;;;;;9.07;1.70;;;;;;;7.47;100.00;100019.91;5066762;28;20123;-45
2023/11/07 09:46:21;;;;;;;8.88;1.70;;;;;;;7.50;100.00;100035.75;5066690;28;20053;-44
2023/11/07 09:48:51;;;;;;;7.68;1.45;;;;;;;7.52;100.00;100027.94;5067165;28;20050;-43
2023/11/07 09:51:20;;;;;;;9.90;1.90;;;;;;;7.54;100.00;100017.41;5066407;28;20379;-45
2023/11/07 09:53:51;;;;;;;9.15;2.72;;;;;;;7.56;100.00;100028.91;5057690;28;20039;-45
2023/11/07 09:56:21;;;;;;;7.90;1.40;;;;;;;7.60;100.00;100043.56;5057586;28;20094;-45
2023/11/07 09:58:50;;;;;;;13.02;3.75;;;;;;;7.64;100.00;100049.22;5065926;28;20033;-43
2023/11/07 10:01:17;;;;;;;7.15;1.77;;;;;;;7.66;100.00;100056.00;5066407;28;20049;-44
2023/11/07 10:03:50;;;;;;;9.25;2.22;;;;;;;7.70;100.00;100056.94;5065682;28;20139;-45
2023/11/07 10:06:18;;;;;;;6.10;1.40;;;;;;;7.73;100.00;100052.69;5066541;28;20029;-44
2023/11/07 10:08:45;;;;;;;10.52;1.70;;;;;;;7.77;100.00;100057.16;5065635;28;20046;-47
2023/11/07 10:11:14;;;;;;;7.05;1.45;;;;;;;7.82;100.00;100053.34;5056955;28;20505;-47
2023/11/07 10:14:08;;;;;;;13.77;2.33;;;;;;;7.88;100.00;100057.50;5066220;28;20421;-44
2023/11/07 10:16:37;;;;;;;11.95;2.28;;;;;;;7.92;100.00;100069.44;5062513;28;20681;-44
2023/11/07 10:19:04;;;;;;;11.00;2.42;;;;;;;7.95;100.00;100069.56;5062269;28;20048;-45
2023/11/07 10:21:33;;;;;;;11.52;1.83;;;;;;;8.00;100.00;100074.03;5051174;28;20846;-44
2023/11/07 10:24:00;;;;;;;10.15;1.95;;;;;;;8.07;100.00;100067.97;5065621;28;20410;-45
2023/11/07 10:26:27;;;;;;;7.90;2.65;;;;;;;8.12;100.00;100062.22;5066376;28;20066;-45
2023/11/07 10:29:14;;;;;;;9.20;1.50;;;;;;;8.17;100.00;100056.47;5057350;28;20120;-45
2023/11/07 10:32:08;;;;;;;5.30;1.70;;;;;;;8.19;100.00;100056.91;5057856;28;20033;-47
2023/11/07 10:34:36;;;;;;;11.13;1.65;;;;;;;8.19;100.00;100063.25;5058562;28;20035;-42
2023/11/07 10:37:05;;;;;;;10.63;2.47;;;;;;;8.21;100.00;100063.69;5064445;28;20059;-45
2023/11/07 10:39:33;;;;;;;7.65;1.52;;;;;;;8.22;100.00;100057.03;5058709;28;20533;-45
2023/11/07 10:42:19;;;;;;;10.30;1.88;;;;;;;8.25;100.00;100066.56;5066312;28;20044;-45
2023/11/07 10:44:58;;;;;;;5.72;1.55;;;;;;;8.26;100.00;100062.69;5055484;28;20371;-46
2023/11/07 10:47:34;;;;;;;9.02;2.35;;;;;;;8.27;100.00;100075.31;5062507;28;20512;-43
2023/11/07 10:50:02;;;;;;;8.10;1.48;;;;;;;8.30;100.00;100060.84;5065503;28;20411;-46
2023/11/07 10:52:29;;;;;;;10.07;2.13;;;;;;;8.33;100.00;100073.94;5065846;28;20047;-43
2023/11/07 10:54:56;;;;;;;7.40;1.23;;;;;;;8.36;100.00;100070.50;5059950;28;20661;-43
2023/11/07 10:57:28;;;;;;;10.38;2.50;;;;;;;8.39;100.00;100061.53;5059071;28;20051;-47
2023/11/07 11:00:18;;;;;;;7.82;1.63;;;;;;;8.42;100.00;100063.56;5064252;28;20047;-45
2023/11/07 11:02:53;;;;;;;7.85;2.45;;;;;;;8.45;100.00;100065.66;5065535;28;20194;-45
2023/11/07 11:05:23;;;;;;;7.63;1.92;;;;;;;8.49;100.00;100061.06;5053316;28;20082;-44
2023/11/07 11:07:51;;;;;;;7.80;1.48;;;;;;;8.53;100.00;100061.94;5065349;28;20040;-45
2023/11/07 11:10:27;;;;;;;3.85;1.33;;;;;;;8.56;100.00;100058.50;5065145;28;20060;-43
2023/11/07 11:12:56;;;;;;;9.38;1.52;;;;;;;8.60;100.00;100056.66;5064184;28;20047;-48
2023/11/07 11:15:23;;;;;;;3.75;1.60;;;;;;;8.63;100.00;100061.47;5064342;28;20121;-49
2023/11/07 11:18:00;;;;;;;5.85;1.30;;;;;;;8.70;100.00;100060.88;5064586;28;20047;-44
2023/11/07 11:20:41;;;;;;;9.50;1.27;;;;;;;8.77;100.00;100061.91;5066440;28;20028;-43
2023/11/07 11:23:36;;;;;;;7.13;1.90;;;;;;;8.81;100.00;100064.78;5064756;28;20398;-44
2023/11/07 11:26:15;;;;;;;3.35;0.80;;;;;;;8.84;100.00;100056.56;5049566;28;20095;-50
2023/11/07 11:28:43;;;;;;;12.20;2.45;;;;;;;8.88;100.00;100060.25;5053292;28;20101;-43
2023/11/07 11:31:14;;;;;;;7.85;0.90;;;;;;;8.91;100.00;100065.09;5065152;28;20033;-45
2023/11/07 11:33:46;;;;;;;6.60;1.25;;;;;;;8.93;100.00;100060.00;5057557;28;20051;-46